This is the latest recevied weather packets stored in our database for station/object SP8AQK-13. If no packets are shown the sender has not sent any weather packets the latest 10 day(s).
| Time | Temp. | Humidity | Pressure | Rain* | Wind** | Luminosity | Snow |
|---|---|---|---|---|---|---|---|
| 1777569767 | 8.89° C | 45% | 1028.5 hPa | - | - | - | - |
| 1777568566 | 9.44° C | 45% | 1028.4 hPa | - | - | - | - |
| 1777567366 | 10° C | 43% | 1028 hPa | - | - | - | - |
| 1777566165 | 10.56° C | 40% | 1027.9 hPa | - | - | - | - |
| 1777564964 | 11.11° C | 35% | 1028 hPa | - | - | - | - |
| 1777563763 | 11.67° C | 34% | 1028.1 hPa | - | - | - | - |
| 1777562563 | 11.67° C | 35% | 1028.1 hPa | - | - | - | - |
| 1777561362 | 12.22° C | 34% | 1028.2 hPa | - | - | - | - |
| 1777560161 | 12.22° C | 35% | 1028.5 hPa | - | - | - | - |
| 1777558960 | 13.33° C | 35% | 1028.6 hPa | - | - | - | - |
| 1777557760 | 13.33° C | 36% | 1028.5 hPa | - | - | - | - |
| 1777556559 | 12.22° C | 37% | 1029 hPa | - | - | - | - |
| 1777555358 | 13.33° C | 35% | 1029.1 hPa | - | - | - | - |
| 1777554158 | 12.78° C | 36% | 1029.1 hPa | - | - | - | - |
| 1777552957 | 13.33° C | 34% | 1029.3 hPa | - | - | - | - |
| 1777551757 | 12.78° C | 36% | 1029.8 hPa | - | - | - | - |
| 1777550555 | 13.89° C | 34% | 1029.8 hPa | - | - | - | - |
| 1777549355 | 14.44° C | 33% | 1030 hPa | - | - | - | - |
| 1777548154 | 13.89° C | 33% | 1030.3 hPa | - | - | - | - |
| 1777546953 | 13.89° C | 34% | 1030.5 hPa | - | - | - | - |
| 1777545753 | 13.89° C | 34% | 1030.8 hPa | - | - | - | - |
| 1777544552 | 13.33° C | 34% | 1031 hPa | - | - | - | - |
| 1777543351 | 13.89° C | 33% | 1031.2 hPa | - | - | - | - |
| 1777542150 | 12.22° C | 35% | 1031.4 hPa | - | - | - | - |
| 1777540950 | 13.89° C | 33% | 1031.4 hPa | - | - | - | - |
* Rain since midnight (hover to see other rain measurements)
** Current wind speed in m/s (hover to see current wind gust speed)